Data ze zpráv METAR

Na této stránce "Data ze zpráv METAR" si můžete prohlédnout aktuální data o počasí z českých letišť.

LKKB - Kbely, Czech Republic
Distance from station: JJZ 98km
Aktualizováno v: 18/09/2018 17:00
Jasno
Jasno
 Vítr od JV
Vítr: JV 9 km/h
Teplota vzduchu: 28°C
Heat Index: 28°C
Rosný bod: 14°C
Vlhkost: 42%
Tlak vzduchu: 1016 hPa
Souhrn: Jasno
Visibility: greater than 10 km
2018/09/18 15:00 LKKB 181500Z 14005KT 090V200 CAVOK 28/14 Q1016 NOSIG
LKPR - Prague/Ruzyne, Czech Republic
Distance from station: JJZ 108km
Aktualizováno v: 18/09/2018 17:30
Jasno
Jasno
 Vítr od JJV
Vítr: JJV 15 km/h
Teplota vzduchu: 28°C
Heat Index: 28°C
Rosný bod: 14°C
Vlhkost: 42%
Tlak vzduchu: 1016 hPa
Souhrn: Jasno
Visibility: greater than 10 km
2018/09/18 15:30 LKPR 181530Z 15008KT CAVOK 28/14 Q1016 NOSIG
 
LKPD - Pardubice, Czech Republic
Distance from station: JJV 111km
Aktualizováno v: 18/09/2018 17:00
Jasno
Jasno
 Vítr od J
Vítr: J 17 km/h
Teplota vzduchu: 28°C
Rosný bod: 12°C
Vlhkost: 37%
Tlak vzduchu: 1017 hPa
Souhrn: Jasno
Visibility: greater than 10 km
2018/09/18 15:00 LKPD 181500Z 17009KT CAVOK 28/12 Q1017 NOSIG
LKCV - Caslav, Czech Republic
Distance from station: JJV 113km
Aktualizováno v: 18/09/2018 17:00
Few Clouds
Few Clouds
 Vítr od JV
Vítr: JV 24 km/h
Teplota vzduchu: 28°C
Heat Index: 28°C
Rosný bod: 14°C
Vlhkost: 42%
Tlak vzduchu: 1016 hPa
Clouds: Few Clouds
Visibility: 10 km
Cloud details: Few Clouds 457 m
2018/09/18 15:00 LKCV 181500Z 14013KT 120V180 9999 FEW015 28/14 Q1016 NOSIG
 
LKKV - Karlovy Vary, Czech Republic
Distance from station: ZJZ 173km
Aktualizováno v: 18/09/2018 17:30
Jasno
Jasno
 Vítr od varies
Vítr: varies 7 km/h
Teplota vzduchu: 26°C
Rosný bod: 11°C
Vlhkost: 39%
Tlak vzduchu: 1017 hPa
Souhrn: Jasno
Visibility: greater than 10 km
2018/09/18 15:30 LKKV 181530Z VRB04KT CAVOK 26/11 Q1017
LKLN - Plzen Line, Czech Republic
Distance from station: JZ 189km
Aktualizováno v: 18/09/2018 17:00
Jasno
Jasno
 Vítr od JZ
Vítr: JZ 7 km/h
Teplota vzduchu: 28°C
Heat Index: 27°C
Rosný bod: 13°C
Vlhkost: 40%
Tlak vzduchu: 1017 hPa
Souhrn: Jasno
Visibility: greater than 10 km
2018/09/18 15:00 LKLN 181500Z AUTO 23004KT 190V280 CAVOK 28/13 Q1017
 
LKNA - Namest, Czech Republic
Distance from station: JJV 209km
Aktualizováno v: 18/09/2018 17:00
Jasno
Jasno
 Vítr od JV
Vítr: JV 26 km/h
Teplota vzduchu: 24°C
Rosný bod: 11°C
Vlhkost: 44%
Tlak vzduchu: 1019 hPa
Souhrn: Jasno
Visibility: greater than 10 km
2018/09/18 15:00 LKNA 181500Z 14014KT CAVOK 24/11 Q1019 NOSIG
LKTB - Brno/Turany, Czech Republic
Distance from station: JJV 230km
Aktualizováno v: 18/09/2018 17:30
Jasno
Jasno
 Vítr od JJV
Vítr: JJV 24 km/h
Teplota vzduchu: 25°C
Rosný bod: 12°C
Vlhkost: 44%
Tlak vzduchu: 1019 hPa
Souhrn: Jasno
Visibility: greater than 10 km
2018/09/18 15:30 LKTB 181530Z 15013KT CAVOK 25/12 Q1019 NOSIG